Terminal Aerodrome Forecast
Issued by NWS Tampa Bay Area, FL

Current Version | Previous Version | Text Only | Print | Product List | Glossary On
Versions: 1 2 3 4 5 6 7 8 9 10 11 12 13 14 15
000
FTUS42 KTBW 052342
TAFFMY
TAF
KFMY 052342Z 0600/0624 18009KT P6SM SCT040 SCT250
     FM060600 16008KT 5SM BR SCT010 OVC025
     FM061500 21012G18KT 6SM BR VCTS SCT015CB OVC025
     FM062100 25008KT P6SM VCTS SCT015CB OVC050=

USA.gov is the U.S. government's official web portal to all federal, state and local government web resources and services.